Time;durP1;ratioP1;P1;durP2;ratioP2;P2;SDS_P1;SDS_P2;PMS_P1;PMS_P2;Temp;Humidity;BMP_temperature;BMP_pressure;BME280_temperature;BME280_humidity;BME280_pressure;Samples;Min_cycle;Max_cycle;Signal;HPM_P1;HPM_P2
2023/04/22 00:07:28;;;;;;;47.70;25.10;;;;;;;6.03;63.15;98555.77;437349;1260;108063;-42
2023/04/22 00:27:42;;;;;;;48.10;27.90;;;;;;;5.71;63.66;98550.59;437235;1251;110814;-43
2023/04/22 00:37:49;;;;;;;40.10;22.20;;;;;;;5.56;63.78;98547.58;437568;1247;108323;-42
2023/04/22 00:47:56;;;;;;;35.10;20.30;;;;;;;5.41;63.80;98543.27;437426;1251;97493;-41
2023/04/22 00:58:04;;;;;;;25.90;16.00;;;;;;;5.38;64.02;98538.19;437491;1246;97753;-41
2023/04/22 01:08:12;;;;;;;27.60;14.50;;;;;;;5.68;64.49;98540.23;437387;1260;107496;-44
2023/04/22 01:18:20;;;;;;;41.00;22.60;;;;;;;5.78;64.08;98536.51;437665;1244;97483;-40
2023/04/22 01:28:28;;;;;;;56.80;30.60;;;;;;;5.75;64.58;98536.10;437144;1252;97464;-41
2023/04/22 01:38:36;;;;;;;58.60;35.20;;;;;;;5.68;64.62;98532.17;437371;1247;109831;-43
2023/04/22 01:48:49;;;;;;;78.00;41.80;;;;;;;5.49;64.97;98532.96;437351;1250;106864;-40
2023/04/22 01:58:56;;;;;;;58.20;36.30;;;;;;;5.39;65.28;98534.66;437274;1250;106491;-42
2023/04/22 02:09:03;;;;;;;61.60;35.00;;;;;;;5.39;65.58;98536.76;437234;1247;97898;-41
2023/04/22 02:19:10;;;;;;;76.60;39.60;;;;;;;5.45;66.02;98531.69;437436;1251;108660;-42
2023/04/22 02:29:18;;;;;;;79.70;46.00;;;;;;;5.44;66.43;98529.64;437625;1247;97879;-41
2023/04/22 02:39:25;;;;;;;81.60;45.50;;;;;;;5.22;66.58;98526.80;437606;1249;110407;-41
2023/04/22 02:49:32;;;;;;;89.60;48.40;;;;;;;4.78;66.51;98528.38;437566;1246;108369;-42
2023/04/22 02:59:39;;;;;;;64.00;36.70;;;;;;;4.63;66.91;98522.66;437709;1247;96616;-41
2023/04/22 03:09:47;;;;;;;78.50;35.80;;;;;;;4.76;67.35;98522.13;437339;1250;109425;-41
2023/04/22 03:19:53;;;;;;;75.60;40.60;;;;;;;4.77;67.20;98526.65;437438;1249;107582;-40
2023/04/22 03:30:00;;;;;;;92.00;51.70;;;;;;;4.74;67.60;98527.16;437584;1247;97462;-40
2023/04/22 03:40:09;;;;;;;107.60;57.70;;;;;;;4.71;67.81;98526.86;437609;1247;110180;-41
2023/04/22 03:50:18;;;;;;;104.10;58.00;;;;;;;4.67;68.11;98525.34;437633;1247;106562;-41
2023/04/22 04:00:25;;;;;;;109.40;60.00;;;;;;;4.71;68.35;98527.98;437498;1260;97135;-41
2023/04/22 04:10:31;;;;;;;79.60;48.20;;;;;;;4.85;68.40;98529.70;437565;1250;96907;-41
2023/04/22 04:20:37;;;;;;;69.50;43.50;;;;;;;5.15;68.51;98528.08;437511;1249;108590;-42
2023/04/22 04:30:44;;;;;;;88.30;49.20;;;;;;;5.75;68.62;98527.42;438206;1249;97908;-40
2023/04/22 04:40:53;;;;;;;111.10;57.00;;;;;;;6.51;68.41;98531.14;438053;1249;110240;-42
2023/04/22 04:51:03;;;;;;;107.70;59.20;;;;;;;7.04;68.07;98537.55;438053;1244;107531;-41
2023/04/22 05:01:10;;;;;;;89.20;53.70;;;;;;;7.79;67.92;98534.47;438076;1250;96677;-42
2023/04/22 05:11:17;;;;;;;82.60;50.70;;;;;;;9.36;67.53;98526.39;438114;1245;110404;-40
2023/04/22 05:31:31;;;;;;;60.60;35.60;;;;;;;12.26;65.51;98521.86;438094;1251;97941;-40
2023/04/22 05:41:38;;;;;;;49.20;31.20;;;;;;;13.26;63.78;98520.83;438084;1250;111098;-42
2023/04/22 05:51:46;;;;;;;42.20;27.30;;;;;;;14.36;62.13;98522.64;437902;1250;107392;-41
2023/04/22 06:01:53;;;;;;;41.70;26.70;;;;;;;15.30;60.28;98518.20;438017;1246;96558;-40
2023/04/22 06:22:07;;;;;;;33.80;21.90;;;;;;;17.38;57.04;98518.84;438199;1249;108228;-41
2023/04/22 06:32:15;;;;;;;34.60;21.10;;;;;;;18.27;55.08;98522.77;438125;1245;97903;-40
2023/04/22 06:42:21;;;;;;;24.80;16.00;;;;;;;18.98;53.48;98526.29;438272;1247;110336;-41
2023/04/22 06:52:28;;;;;;;15.90;9.90;;;;;;;19.41;51.83;98522.19;438023;1250;107715;-41
2023/04/22 07:02:35;;;;;;;17.20;11.90;;;;;;;19.54;50.45;98525.86;438513;1249;97938;-40
2023/04/22 07:12:44;;;;;;;19.70;11.70;;;;;;;19.93;49.16;98531.36;438577;1258;109792;-41
2023/04/22 07:22:50;;;;;;;16.90;9.50;;;;;;;20.15;47.74;98532.02;438430;1249;108038;-41
2023/04/22 07:32:58;;;;;;;13.80;7.50;;;;;;;20.33;46.69;98531.56;438407;1250;97479;-41
2023/04/22 07:53:14;;;;;;;6.00;5.30;;;;;;;20.62;43.72;98524.07;438414;1244;107225;-40
2023/04/22 08:03:22;;;;;;;8.70;5.00;;;;;;;20.42;41.65;98526.36;438469;1258;96683;-40
2023/04/22 08:13:30;;;;;;;12.80;6.40;;;;;;;20.50;41.43;98527.52;438408;1249;108705;-41
2023/04/22 08:23:37;;;;;;;8.90;5.40;;;;;;;20.38;40.56;98526.59;438196;1251;108320;-41
2023/04/22 08:33:44;;;;;;;6.20;5.10;;;;;;;20.04;37.93;98528.92;438459;1245;97855;-41
2023/04/22 08:43:52;;;;;;;9.20;4.70;;;;;;;19.54;36.28;98522.93;438144;1246;110651;-40
2023/04/22 09:04:09;;;;;;;7.00;4.90;;;;;;;19.17;35.22;98519.88;438825;1249;97854;-40
2023/04/22 09:14:17;;;;;;;10.10;4.60;;;;;;;19.14;35.26;98513.86;438446;1244;110452;-42
2023/04/22 09:24:23;;;;;;;;;;;;;;;19.19;35.02;98517.66;438306;1250;107509;-40
2023/04/22 09:34:30;;;;;;;7.30;4.60;;;;;;;19.31;35.30;98506.34;438474;1245;97881;-40
2023/04/22 09:44:38;;;;;;;5.50;4.00;;;;;;;19.39;34.94;98498.89;438166;1250;110547;-43
2023/04/22 10:04:55;;;;;;;5.90;4.50;;;;;;;19.79;34.70;98482.41;438506;1244;96558;-41
2023/04/22 10:15:05;;;;;;;5.50;4.20;;;;;;;19.63;33.86;98476.77;438895;1247;284488;-42
2023/04/22 10:45:35;;;;;;;5.10;3.60;;;;;;;19.24;32.72;98455.77;438117;1250;110677;-41
2023/04/22 10:55:49;;;;;;;8.50;3.80;;;;;;;19.46;33.06;98442.59;438494;1246;108701;-42
2023/04/22 11:26:37;;;;;;;4.10;3.60;;;;;;;20.17;33.08;98425.15;438262;1246;107113;-41
2023/04/22 11:36:45;;;;;;;3.30;2.90;;;;;;;20.26;32.44;98413.64;438291;1249;97858;-42
2023/04/22 11:46:52;;;;;;;4.90;3.70;;;;;;;20.25;33.18;98409.16;438322;1249;110900;-42
2023/04/22 11:57:01;;;;;;;6.00;4.00;;;;;;;20.19;32.10;98403.80;438238;1246;108073;-41
2023/04/22 12:07:07;;;;;;;5.00;3.70;;;;;;;20.08;32.06;98400.25;438228;1250;97886;-40
2023/04/22 12:17:15;;;;;;;5.90;3.50;;;;;;;20.36;32.98;98393.56;438219;1246;110649;-41
2023/04/22 12:27:22;;;;;;;6.90;3.70;;;;;;;20.50;33.33;98380.33;438272;1249;108454;-41
2023/04/22 12:37:30;;;;;;;4.70;3.70;;;;;;;20.24;31.63;98368.20;438073;1246;97466;-42
2023/04/22 12:57:44;;;;;;;7.50;4.00;;;;;;;19.98;31.04;98359.15;437994;1246;107970;-42
2023/04/22 13:07:53;;;;;;;6.70;3.50;;;;;;;19.79;31.49;98350.33;437863;1248;97883;-44
2023/04/22 13:18:03;;;;;;;5.60;4.10;;;;;;;19.80;32.33;98345.86;437982;1251;109704;-41
2023/04/22 13:38:18;;;;;;;3.90;3.50;;;;;;;19.98;31.65;98325.88;438036;1247;97854;-41
2023/04/22 13:48:26;;;;;;;4.90;3.80;;;;;;;20.02;31.88;98323.17;437947;1251;110449;-42
2023/04/22 13:58:33;;;;;;;6.60;3.50;;;;;;;19.96;31.98;98314.80;437934;1247;108049;-44
2023/04/22 14:08:41;;;;;;;4.20;2.90;;;;;;;19.90;31.59;98308.54;437921;1249;97482;-42
2023/04/22 14:18:47;;;;;;;4.30;2.80;;;;;;;19.85;31.80;98299.89;437948;1249;110646;-43
2023/04/22 14:28:54;;;;;;;6.90;3.50;;;;;;;19.82;31.52;98299.19;437960;1247;107886;-42
2023/04/22 14:39:02;;;;;;;5.30;3.90;;;;;;;19.78;31.69;98290.31;438003;1246;96637;-42
2023/04/22 14:49:09;;;;;;;5.10;3.40;;;;;;;19.82;32.36;98284.70;437985;1246;111112;-42
2023/04/22 14:59:16;;;;;;;5.00;3.40;;;;;;;19.89;32.57;98281.23;437874;1247;107213;-41
2023/04/22 15:19:30;;;;;;;5.10;3.20;;;;;;;19.93;31.49;98271.58;437935;1247;107972;-42
2023/04/22 15:29:37;;;;;;;4.30;3.20;;;;;;;19.87;32.15;98265.02;437918;1247;97874;-42
2023/04/22 15:39:44;;;;;;;5.90;3.50;;;;;;;19.71;31.72;98264.35;438058;1250;109058;-44
2023/04/22 15:49:52;;;;;;;10.90;5.00;;;;;;;19.56;32.01;98264.22;437912;1247;107174;-42
2023/04/22 15:59:59;;;;;;;3.90;3.10;;;;;;;19.43;32.06;98257.73;437917;1246;97902;-43
2023/04/22 16:10:16;;;;;;;3.80;2.70;;;;;;;19.28;32.17;98259.81;437896;1246;110540;-41
2023/04/22 16:20:22;;;;;;;3.60;3.00;;;;;;;19.14;32.56;98262.00;437802;1249;110180;-41
2023/04/22 16:30:30;;;;;;;3.70;2.80;;;;;;;18.99;32.71;98259.78;437843;1247;97849;-42
2023/04/22 16:40:39;;;;;;;6.50;3.80;;;;;;;18.78;32.74;98255.77;437862;1247;108400;-42
2023/04/22 16:50:46;;;;;;;5.00;2.90;;;;;;;18.54;33.19;98251.45;437914;1249;97889;-42
2023/04/22 17:00:53;;;;;;;4.30;3.10;;;;;;;18.27;33.17;98249.05;437794;1247;110752;-41
2023/04/22 17:11:01;;;;;;;3.40;3.10;;;;;;;18.02;33.48;98248.25;437952;1246;108159;-41
2023/04/22 17:31:12;;;;;;;9.90;5.20;;;;;;;17.52;34.30;98247.27;438031;1249;110033;-42
2023/04/22 17:41:20;;;;;;;10.80;6.40;;;;;;;17.18;34.83;98252.24;437875;1250;107438;-42
2023/04/22 17:51:28;;;;;;;34.50;22.40;;;;;;;16.84;35.34;98256.70;437843;1249;97897;-41
2023/04/22 18:01:35;;;;;;;25.10;15.00;;;;;;;16.49;36.15;98258.15;438045;1247;109942;-42
2023/04/22 18:21:47;;;;;;;22.10;10.90;;;;;;;15.90;36.93;98273.38;437909;1249;97871;-41
2023/04/22 18:32:06;;;;;;;15.60;9.10;;;;;;;15.64;37.26;98276.23;437957;1246;111083;-42
2023/04/22 18:42:14;;;;;;;18.50;11.40;;;;;;;15.38;37.58;98286.12;437948;1247;107583;-40
2023/04/22 18:52:21;;;;;;;26.60;15.40;;;;;;;15.21;38.12;98290.09;438016;1250;97857;-43
2023/04/22 19:02:28;;;;;;;37.20;21.30;;;;;;;15.07;38.65;98290.56;437936;1250;110127;-42
2023/04/22 19:12:36;;;;;;;75.30;52.80;;;;;;;14.98;38.96;98289.51;437918;1250;108708;-42
2023/04/22 19:22:43;;;;;;;30.50;17.30;;;;;;;14.78;39.28;98296.89;437739;1247;97918;-41
2023/04/22 19:32:50;;;;;;;28.80;18.10;;;;;;;14.49;39.87;98298.95;437757;1250;109523;-40
2023/04/22 19:53:06;;;;;;;29.40;22.30;;;;;;;13.76;41.04;98292.18;437743;1247;96635;-42
2023/04/22 20:03:14;;;;;;;44.90;30.90;;;;;;;13.51;41.62;98288.85;437828;1246;110075;-45
2023/04/22 20:13:21;;;;;;;50.30;30.10;;;;;;;13.21;42.20;98283.87;437771;1247;108874;-41
2023/04/22 20:23:31;;;;;;;46.60;27.90;;;;;;;13.02;42.86;98282.27;438042;1249;97749;-42
2023/04/22 20:33:38;;;;;;;43.70;26.70;;;;;;;12.85;43.23;98277.52;439372;1247;109497;-42
2023/04/22 20:43:46;;;;;;;42.20;28.50;;;;;;;12.64;43.92;98277.44;439129;1247;108583;-41
2023/04/22 20:53:53;;;;;;;36.80;23.80;;;;;;;12.43;44.37;98276.75;440407;1249;97851;-41
2023/04/22 21:04:02;;;;;;;40.10;23.00;;;;;;;12.20;44.93;98273.33;438936;1250;96658;-40
2023/04/22 21:14:09;;;;;;;40.90;26.20;;;;;;;12.02;45.54;98271.80;440128;1250;109659;-42
2023/04/22 21:24:17;;;;;;;44.60;27.70;;;;;;;11.86;46.24;98273.84;438674;1247;106552;-41
2023/04/22 21:34:23;;;;;;;48.50;28.60;;;;;;;11.65;46.67;98278.34;438391;1247;96577;-42
2023/04/22 21:44:29;;;;;;;51.50;30.40;;;;;;;11.38;47.06;98281.36;437736;1250;109816;-41
2023/04/22 21:54:36;;;;;;;52.70;33.70;;;;;;;11.13;47.57;98279.89;437554;1246;109039;-42
2023/04/22 22:04:44;;;;;;;64.60;38.70;;;;;;;10.93;48.06;98282.91;437669;1250;97864;-41
2023/04/22 22:14:52;;;;;;;75.10;37.80;;;;;;;10.84;48.51;98283.21;437141;1247;517053;-42
2023/04/22 22:24:59;;;;;;;44.50;29.70;;;;;;;10.79;48.79;98281.67;437646;1247;107254;-41
2023/04/22 22:35:04;;;;;;;48.50;27.40;;;;;;;10.76;48.99;98279.25;437659;1248;97858;-42
2023/04/22 22:45:11;;;;;;;39.60;24.00;;;;;;;10.74;49.14;98274.39;437698;1247;110040;-41
2023/04/22 22:55:19;;;;;;;34.70;21.80;;;;;;;10.70;49.27;98268.36;437731;1247;107801;-40
2023/04/22 23:05:25;;;;;;;41.50;23.30;;;;;;;10.51;49.54;98274.27;437788;1247;97861;-41
2023/04/22 23:15:32;;;;;;;41.20;23.00;;;;;;;10.30;49.79;98279.17;437558;1247;109689;-42
2023/04/22 23:25:40;;;;;;;35.90;22.70;;;;;;;10.08;50.17;98271.80;437660;1250;109125;-41
2023/04/22 23:35:48;;;;;;;44.50;23.80;;;;;;;9.89;50.58;98271.84;437800;1250;97896;-42
2023/04/22 23:45:55;;;;;;;45.10;26.00;;;;;;;9.62;51.03;98266.79;437609;1248;111215;-41
2023/04/22 23:56:03;;;;;;;55.80;29.80;;;;;;;9.41;51.46;98266.13;437555;1250;107376;-41
